Weather History for Abingdon, VA

Change the Weather History Date:

Sunday, January 12, 2014

  Actual Average (KTRI) Record (KTRI)
Temperature  
Mean Temperature 42 °F 35 °F  
Max Temperature 50 °F 45 °F 71 °F (2013)
Min Temperature 33 °F 25 °F 5 °F (1977)
Degree Days  
Heating Degree Days 24 30  
Month to date heating degree days 360  
Since 1 July heating degree days 2089  
Cooling Degree Days 0 0  
Month to date cooling degree days 0  
Year to date cooling degree days 0  
Moisture  
Dew Point 33 °F    
Average Humidity 77    
Maximum Humidity 96    
Minimum Humidity 53    
Precipitation  
Precipitation 0.00 in 0.10 in 0.74 in (1975)
Month to date precipitation 1.26  
Year to date precipitation 1.26  
Snow  
Snow 0.00 in 0.20 in - ()
Month to date snowfall 1.7  
Since 1 July snowfall 4.4  
Snow Depth -    
Sea Level Pressure  
Sea Level Pressure 30.03 in    
Wind  
Wind Speed 7 mph (West)    
Max Wind Speed 14 mph    
Max Gust Speed 20 mph    
Visibility 10 miles    
Events      
T = Trace of Precipitation, MM = Missing Value Source: NWS Daily Summary

Daily Weather History Graph

Daily Weather History Graph

Search for Another Location

Airport:

Trip Planner

Search our weather history database for the weather conditions in past years. The results will help you decide how hot, cold, wet, or windy it might be!

Date:

Astronomy

Jan. 12, 2014 Rise Set
Actual Time 7:40 AM EST 5:32 PM EST
Civil Twilight 7:12 AM EST 6:01 PM EST
Nautical Twilight 6:40 AM EST 6:33 PM EST
Astronomical Twilight 6:09 AM EST 7:04 PM EST
Moon 2:59 PM EST (1/12) 4:38 AM EST (1/12)
Length of Visible Light 10h 49m
Length of Day
9h 52m
Waxing Gibbous, 89% of the Moon is Illuminated
Jan 12
Waxing Gibbous
Jan 15
Full
Jan 24
Last Quarter
Jan 30
New
Feb 6
First Quarter

Hourly Weather History & Observations

Time (EST) Temp. Windchill Dew Point Humidity Pressure Visibility Wind Dir Wind Speed Gust Speed Precip Events Conditions
12:15 AM 42.3 °F 36.8 °F 32.9 °F 69% 29.85 in 10.0 mi WNW 9.2 mph 18.4 mph N/A   Overcast
12:35 AM 41.0 °F 35.2 °F 32.0 °F 70% 29.85 in 10.0 mi WNW 9.2 mph 17.3 mph N/A   Scattered Clouds
12:55 AM 40.3 °F 34.9 °F 32.0 °F 72% 29.85 in 10.0 mi WNW 8.1 mph - N/A   Clear
1:15 AM 39.7 °F 34.3 °F 32.0 °F 74% 29.86 in 10.0 mi WNW 8.1 mph - N/A   Clear
1:35 AM 38.8 °F 33.8 °F 32.5 °F 78% 29.87 in 10.0 mi West 6.9 mph - N/A   Clear
1:55 AM 38.5 °F 34.1 °F 32.5 °F 79% 29.88 in 10.0 mi West 5.8 mph - N/A   Scattered Clouds
2:15 AM 38.3 °F 33.2 °F 32.4 °F 79% 29.89 in 10.0 mi West 6.9 mph - N/A   Scattered Clouds
2:35 AM 38.5 °F 34.1 °F 32.5 °F 79% 29.89 in 10.0 mi WNW 5.8 mph - N/A   Mostly Cloudy
2:55 AM 38.3 °F 33.2 °F 32.5 °F 80% 29.90 in 10.0 mi West 6.9 mph - N/A   Overcast
3:15 AM 37.9 °F 32.7 °F 32.0 °F 79% 29.90 in 10.0 mi West 6.9 mph - N/A   Overcast
3:35 AM 37.8 °F 33.3 °F 32.5 °F 81% 29.92 in 10.0 mi West 5.8 mph - N/A   Overcast
3:55 AM 37.8 °F 33.3 °F 33.1 °F 83% 29.92 in 10.0 mi West 5.8 mph - N/A   Overcast
4:15 AM 37.9 °F 32.1 °F 32.9 °F 82% 29.92 in 10.0 mi West 8.1 mph - N/A   Overcast
4:35 AM 37.9 °F 33.5 °F 33.1 °F 83% 29.93 in 10.0 mi West 5.8 mph - N/A   Overcast
4:55 AM 37.9 °F 32.7 °F 33.6 °F 84% 29.94 in 10.0 mi West 6.9 mph - N/A   Overcast
5:15 AM 37.8 °F 34.2 °F 33.6 °F 85% 29.94 in 10.0 mi West 4.6 mph - N/A   Overcast
5:35 AM 37.6 °F 32.3 °F 33.6 °F 86% 29.95 in 10.0 mi West 6.9 mph - N/A   Overcast
5:55 AM 37.6 °F 32.3 °F 33.4 °F 85% 29.94 in 10.0 mi West 6.9 mph - N/A   Overcast
6:15 AM 36.9 °F 32.2 °F 33.3 °F 87% 29.95 in 10.0 mi West 5.8 mph - N/A   Mostly Cloudy
6:35 AM 36.1 °F 31.4 °F 33.3 °F 89% 29.96 in 10.0 mi SW 5.8 mph - N/A   Mostly Cloudy
6:55 AM 35.6 °F 32.8 °F 32.9 °F 90% 29.97 in 10.0 mi WSW 3.5 mph - N/A   Scattered Clouds
7:15 AM 34.9 °F - 32.9 °F 92% 29.97 in 10.0 mi Calm Calm - N/A   Clear
7:35 AM 34.2 °F 30.0 °F 32.9 °F 95% 29.98 in 10.0 mi West 4.6 mph - N/A   Clear
7:55 AM 34.2 °F 29.0 °F 33.1 °F 96% 29.99 in 10.0 mi West 5.8 mph - N/A   Scattered Clouds
8:15 AM 35.1 °F 32.2 °F 33.6 °F 94% 29.99 in 10.0 mi WSW 3.5 mph - N/A   Clear
8:35 AM 35.6 °F 31.7 °F 33.8 °F 93% 30.00 in 10.0 mi West 4.6 mph - N/A   Clear
8:55 AM 36.7 °F 31.2 °F 34.7 °F 93% 30.03 in 10.0 mi West 6.9 mph - N/A   Clear
9:15 AM 37.9 °F 32.1 °F 35.1 °F 89% 30.04 in 10.0 mi WSW 8.1 mph - N/A   Scattered Clouds
9:35 AM 39.0 °F 32.3 °F 35.6 °F 88% 30.06 in 10.0 mi WSW 10.4 mph - N/A   Overcast
9:55 AM 39.9 °F 33.9 °F 36.3 °F 87% 30.06 in 10.0 mi WSW 9.2 mph - N/A   Mostly Cloudy
10:15 AM 39.7 °F 34.9 °F 35.6 °F 85% 30.08 in 10.0 mi West 6.9 mph - N/A   Scattered Clouds
10:35 AM 41.0 °F 34.7 °F 35.6 °F 81% 30.08 in 10.0 mi WNW 10.4 mph - N/A   Scattered Clouds
10:55 AM 41.9 °F 36.3 °F 35.4 °F 78% 30.09 in 10.0 mi WNW 9.2 mph 16.1 mph N/A   Scattered Clouds
11:15 AM 42.6 °F 36.8 °F 35.1 °F 75% 30.09 in 10.0 mi WNW 10.4 mph 16.1 mph N/A   Clear
11:35 AM 44.4 °F 39.0 °F 35.6 °F 71% 30.08 in 10.0 mi West 10.4 mph 16.1 mph N/A   Clear
11:55 AM 45.0 °F 40.1 °F 35.4 °F 69% 30.08 in 10.0 mi WNW 9.2 mph - N/A   Clear
12:15 PM 45.9 °F 40.4 °F 36.3 °F 69% 30.07 in 10.0 mi West 11.5 mph 16.1 mph N/A   Clear
12:35 PM 46.2 °F 40.1 °F 35.8 °F 67% 30.06 in 10.0 mi WSW 13.8 mph 19.6 mph N/A   Scattered Clouds
12:55 PM 46.9 °F - 35.6 °F 65% 30.06 in 10.0 mi West 11.5 mph - N/A   Clear
1:15 PM 47.3 °F - 35.2 °F 63% 30.06 in 10.0 mi WSW 11.5 mph - N/A   Clear
1:35 PM 48.4 °F - 36.1 °F 63% 30.06 in 10.0 mi WSW 11.5 mph 18.4 mph N/A   Clear
1:55 PM 49.3 °F - 34.9 °F 58% 30.06 in 10.0 mi West 9.2 mph - N/A   Clear
2:15 PM 49.8 °F - 34.5 °F 56% 30.06 in 10.0 mi West 10.4 mph 16.1 mph N/A   Clear
2:35 PM 50.0 °F - 34.7 °F 56% 30.06 in 10.0 mi West 10.4 mph - N/A   Clear
2:55 PM 49.6 °F - 35.2 °F 58% 30.07 in 10.0 mi West 6.9 mph - N/A   Clear
3:15 PM 50.0 °F - 35.2 °F 57% 30.08 in 10.0 mi WSW 11.5 mph 17.3 mph N/A   Clear
3:35 PM 50.0 °F - 35.6 °F 58% 30.08 in 10.0 mi SW 11.5 mph - N/A   Clear
3:55 PM 49.6 °F - 34.3 °F 56% 30.08 in 10.0 mi WSW 9.2 mph - N/A   Clear
4:15 PM 49.5 °F - 34.3 °F 56% 30.09 in 10.0 mi WSW 6.9 mph - N/A   Clear
4:35 PM 49.3 °F - 33.8 °F 55% 30.09 in 10.0 mi West 8.1 mph - N/A   Clear
4:55 PM 49.1 °F - 32.5 °F 53% 30.09 in 10.0 mi West 8.1 mph - N/A   Clear
5:15 PM 48.2 °F - 32.0 °F 54% 30.10 in 10.0 mi West 6.9 mph - N/A   Clear
5:35 PM 47.1 °F - 32.0 °F 56% 30.10 in 10.0 mi West 4.6 mph - N/A   Clear
5:55 PM 46.2 °F - 32.0 °F 58% 30.10 in 10.0 mi Calm Calm - N/A   Clear
6:15 PM 44.6 °F - 32.0 °F 61% 30.10 in 10.0 mi Calm Calm - N/A   Clear
6:35 PM 42.1 °F - 32.0 °F 67% 30.10 in 10.0 mi Calm Calm - N/A   Clear
6:55 PM 39.7 °F - 32.0 °F 74% 30.11 in 10.0 mi Calm Calm - N/A   Clear
7:15 PM 40.1 °F - 32.0 °F 73% 30.11 in 10.0 mi Calm Calm - N/A   Clear
7:35 PM 38.8 °F - 32.0 °F 76% 30.11 in 10.0 mi Calm Calm - N/A   Clear
7:55 PM 36.1 °F - 31.3 °F 83% 30.11 in 10.0 mi Calm Calm - N/A   Clear
8:15 PM 37.2 °F - 31.8 °F 81% 30.11 in 10.0 mi Calm Calm - N/A   Clear
8:35 PM 36.5 °F - 31.6 °F 83% 30.10 in 10.0 mi Calm Calm - N/A   Clear
8:55 PM 35.6 °F - 31.1 °F 84% 30.10 in 10.0 mi Calm Calm - N/A   Clear
9:15 PM 34.9 °F - 31.3 °F 87% 30.10 in 10.0 mi Calm Calm - N/A   Clear
9:35 PM 34.3 °F - 30.9 °F 87% 30.10 in 10.0 mi Calm Calm - N/A   Clear
9:55 PM 33.6 °F - 30.9 °F 90% 30.10 in 10.0 mi Calm Calm - N/A   Clear
10:15 PM 34.5 °F - 31.5 °F 89% 30.10 in 10.0 mi Calm Calm - N/A   Clear
10:35 PM 33.8 °F - 31.1 °F 90% 30.10 in 10.0 mi Calm Calm - N/A   Clear
10:55 PM 33.6 °F - 30.7 °F 89% 30.10 in 10.0 mi Calm Calm - N/A   Clear
11:15 PM 33.1 °F - 30.6 °F 90% 30.10 in 10.0 mi Calm Calm - N/A   Clear
11:35 PM 33.6 °F - 31.3 °F 91% 30.09 in 10.0 mi Calm Calm - N/A   Clear
11:55 PM 34.5 °F - 31.1 °F 87% 30.09 in 10.0 mi Calm Calm - N/A   Clear